createdAt,value
2022-09-15T00:00:09.497Z,99814.78
2022-09-15T00:02:36.332Z,99809.94
2022-09-15T00:05:03.452Z,99811.94
2022-09-15T00:07:31.366Z,99817.66
2022-09-15T00:09:57.958Z,99819.31
2022-09-15T00:12:25.020Z,99823.88
2022-09-15T00:14:51.663Z,99821.72
2022-09-15T00:17:18.384Z,99821.97
2022-09-15T00:19:45.032Z,99821.31
2022-09-15T00:22:11.779Z,99823.25
2022-09-15T00:24:38.771Z,99832.88
2022-09-15T00:27:05.331Z,99829.25
2022-09-15T00:29:31.958Z,99831.63
2022-09-15T00:31:58.610Z,99835.78
2022-09-15T00:34:25.370Z,99832.09
2022-09-15T00:36:51.992Z,99836.69
2022-09-15T00:39:18.867Z,99839.91
2022-09-15T00:41:45.408Z,99835.34
2022-09-15T00:44:37.068Z,99841.91
2022-09-15T00:47:21.844Z,99834.13
2022-09-15T00:49:58.823Z,99823.25
2022-09-15T00:52:32.335Z,99829.75
2022-09-15T00:55:19.415Z,99832.00
2022-09-15T00:57:52.377Z,99838.00
2022-09-15T01:00:21.569Z,99834.72
2022-09-15T01:02:49.285Z,99831.56
2022-09-15T01:05:18.802Z,99826.97
2022-09-15T01:08:08.915Z,99828.72
2022-09-15T01:10:38.722Z,99824.25
2022-09-15T01:13:09.941Z,99819.94
2022-09-15T01:15:54.998Z,99819.91
2022-09-15T01:18:36.940Z,99822.44
2022-09-15T01:21:06.908Z,99824.06
2022-09-15T01:23:52.116Z,99829.25
2022-09-15T01:26:46.779Z,99828.06
2022-09-15T01:29:25.239Z,99828.06
2022-09-15T01:32:38.908Z,99827.28
2022-09-15T01:35:34.966Z,99826.72
2022-09-15T01:38:23.189Z,99829.97
2022-09-15T01:41:15.805Z,99818.47
2022-09-15T01:43:50.101Z,99815.00
2022-09-15T01:46:20.505Z,99814.44
2022-09-15T01:48:49.412Z,99808.31
2022-09-15T01:51:16.468Z,99815.13
2022-09-15T01:53:44.739Z,99820.88
2022-09-15T01:56:12.147Z,99825.59
2022-09-15T01:58:41.014Z,99822.41
2022-09-15T02:01:14.151Z,99822.19
2022-09-15T02:03:56.184Z,99824.88
2022-09-15T02:06:36.008Z,99813.44
2022-09-15T02:09:18.031Z,99806.75
2022-09-15T02:11:56.562Z,99825.72
2022-09-15T02:14:33.799Z,99818.22
2022-09-15T02:17:01.644Z,99823.66
2022-09-15T02:19:34.700Z,99830.59
2022-09-15T02:22:13.387Z,99820.63
2022-09-15T02:24:45.974Z,99835.78
2022-09-15T02:27:17.806Z,99831.44
2022-09-15T02:29:48.802Z,99832.88
2022-09-15T02:32:19.169Z,99825.44
2022-09-15T02:34:49.051Z,99842.69
2022-09-15T02:37:17.555Z,99846.34
2022-09-15T02:39:51.833Z,99858.81
2022-09-15T02:42:29.143Z,99859.53
2022-09-15T02:44:55.847Z,99848.97
2022-09-15T02:47:23.720Z,99850.34
2022-09-15T02:49:50.543Z,99844.75
2022-09-15T02:52:17.444Z,99832.34
2022-09-15T02:54:44.030Z,99845.00
2022-09-15T02:57:10.606Z,99842.56
2022-09-15T03:00:12.986Z,99842.50
2022-09-15T03:02:44.722Z,99843.69
2022-09-15T03:05:14.000Z,99844.28
2022-09-15T03:07:41.434Z,99839.56
2022-09-15T03:10:10.383Z,99841.34
2022-09-15T03:12:44.983Z,99844.41
2022-09-15T03:17:54.407Z,99840.81
2022-09-15T03:20:24.134Z,99838.09
2022-09-15T03:22:51.039Z,99838.94
2022-09-15T03:25:18.725Z,99848.53
2022-09-15T03:27:45.592Z,99848.97
2022-09-15T03:30:12.898Z,99853.53
2022-09-15T03:32:39.915Z,99855.78
2022-09-15T03:35:07.500Z,99860.06
2022-09-15T03:37:34.498Z,99863.41
2022-09-15T03:40:01.323Z,99860.63
2022-09-15T03:42:27.901Z,99856.91
2022-09-15T03:44:54.543Z,99856.03
2022-09-15T03:47:21.183Z,99843.16
2022-09-15T03:49:47.833Z,99853.09
2022-09-15T03:52:14.550Z,99847.84
2022-09-15T03:54:41.414Z,99839.19
2022-09-15T03:57:08.008Z,99846.75
2022-09-15T03:59:34.585Z,99842.38
2022-09-15T04:02:01.343Z,99832.66
2022-09-15T04:04:28.231Z,99826.38
2022-09-15T04:06:54.810Z,99830.53
2022-09-15T04:09:21.547Z,99824.59
2022-09-15T04:11:48.327Z,99831.53
2022-09-15T04:14:15.660Z,99823.41
2022-09-15T04:16:42.382Z,99838.00
2022-09-15T04:19:09.174Z,99831.41
2022-09-15T04:21:35.939Z,99836.63
2022-09-15T04:24:04.811Z,99821.28
2022-09-15T04:26:35.069Z,99830.41
2022-09-15T04:29:04.461Z,99829.91
2022-09-15T04:31:33.160Z,99832.00
2022-09-15T04:33:59.994Z,99822.91
2022-09-15T04:36:30.022Z,99835.66
2022-09-15T04:38:56.851Z,99827.44
2022-09-15T04:41:24.724Z,99822.06
2022-09-15T04:43:53.538Z,99823.06
2022-09-15T04:46:20.851Z,99829.69
2022-09-15T04:48:48.833Z,99830.97
2022-09-15T04:51:19.577Z,99826.78
2022-09-15T04:53:46.958Z,99825.84
2022-09-15T04:56:20.179Z,99828.41
2022-09-15T04:59:03.256Z,99822.78
2022-09-15T05:01:33.039Z,99823.63
2022-09-15T05:04:03.871Z,99824.09
2022-09-15T05:06:30.664Z,99816.09
2022-09-15T05:08:58.392Z,99817.13
2022-09-15T05:11:26.187Z,99830.53
2022-09-15T05:13:53.275Z,99825.72
2022-09-15T05:16:28.256Z,99821.34
2022-09-15T05:18:57.692Z,99821.25
2022-09-15T05:21:25.152Z,99815.50
2022-09-15T05:23:52.745Z,99819.06
2022-09-15T05:26:25.412Z,99816.47
2022-09-15T05:28:53.067Z,99809.69
2022-09-15T05:31:22.998Z,99818.22
2022-09-15T05:33:51.410Z,99812.25
2022-09-15T05:36:20.242Z,99821.16
2022-09-15T05:38:47.141Z,99817.94
2022-09-15T05:41:19.065Z,99832.13
2022-09-15T05:43:47.751Z,99826.81
2022-09-15T05:46:15.290Z,99830.47
2022-09-15T05:48:42.375Z,99838.88
2022-09-15T05:51:09.071Z,99833.22
2022-09-15T05:53:36.189Z,99836.44
2022-09-15T05:56:05.591Z,99831.28
2022-09-15T05:58:32.706Z,99827.16
2022-09-15T06:01:08.101Z,99828.66
2022-09-15T06:03:35.737Z,99830.28
2022-09-15T06:06:03.669Z,99824.84
2022-09-15T06:08:44.455Z,99827.81
2022-09-15T06:11:31.131Z,99829.00
2022-09-15T06:14:03.169Z,99837.63
2022-09-15T06:16:33.204Z,99842.56
2022-09-15T06:19:01.071Z,99836.97
2022-09-15T06:21:29.725Z,99849.09
2022-09-15T06:24:01.921Z,99848.81
2022-09-15T06:26:28.782Z,99845.69
2022-09-15T06:28:57.692Z,99851.00
2022-09-15T06:31:26.465Z,99852.56
2022-09-15T06:33:55.985Z,99852.94
2022-09-15T06:36:25.919Z,99845.16
2022-09-15T06:38:52.913Z,99846.34
2022-09-15T06:41:19.755Z,99855.72
2022-09-15T06:43:49.034Z,99851.16
2022-09-15T06:46:21.388Z,99848.34
2022-09-15T06:48:49.227Z,99849.16
2022-09-15T06:51:17.821Z,99853.47
2022-09-15T06:53:45.216Z,99858.91
2022-09-15T06:56:14.573Z,99853.63
2022-09-15T06:58:42.629Z,99851.94
2022-09-15T07:01:12.323Z,99852.63
2022-09-15T07:03:41.113Z,99862.28
2022-09-15T07:06:08.678Z,99853.09
2022-09-15T07:08:35.578Z,99857.41
2022-09-15T07:11:02.188Z,99859.06
2022-09-15T07:13:28.939Z,99864.03
2022-09-15T07:15:57.922Z,99856.78
2022-09-15T07:18:25.319Z,99852.78
2022-09-15T07:20:52.408Z,99847.19
2022-09-15T07:23:19.402Z,99851.91
2022-09-15T07:25:46.039Z,99851.94
2022-09-15T07:28:13.277Z,99848.69
2022-09-15T07:30:40.948Z,99861.56
2022-09-15T07:33:09.166Z,99854.38
2022-09-15T07:35:41.590Z,99853.75
2022-09-15T07:38:08.196Z,99848.13
2022-09-15T07:40:34.793Z,99859.06
2022-09-15T07:43:01.650Z,99849.28
2022-09-15T07:45:28.370Z,99851.75
2022-09-15T07:47:55.044Z,99860.84
2022-09-15T07:50:21.616Z,99867.97
2022-09-15T07:52:48.172Z,99874.44
2022-09-15T07:55:15.422Z,99870.00
2022-09-15T07:57:41.991Z,99869.81
2022-09-15T08:00:09.313Z,99876.13
2022-09-15T08:02:41.639Z,99875.66
2022-09-15T08:05:08.228Z,99883.53
2022-09-15T08:07:34.816Z,99877.59
2022-09-15T08:10:01.435Z,99877.97
2022-09-15T08:12:30.648Z,99873.16
2022-09-15T08:14:57.402Z,99878.63
2022-09-15T08:17:23.993Z,99883.88
2022-09-15T08:19:50.573Z,99879.69
2022-09-15T08:22:17.130Z,99881.47
2022-09-15T08:24:43.695Z,99880.84
2022-09-15T08:27:10.699Z,99870.78
2022-09-15T08:29:37.318Z,99880.50
2022-09-15T08:32:04.058Z,99881.09
2022-09-15T08:34:31.005Z,99881.69
2022-09-15T08:36:57.575Z,99886.91
2022-09-15T08:39:24.168Z,99890.31
2022-09-15T08:41:53.323Z,99893.66
2022-09-15T08:44:36.164Z,99891.72
2022-09-15T08:47:12.894Z,99888.31
2022-09-15T08:49:57.967Z,99886.75
2022-09-15T08:52:41.125Z,99892.03
2022-09-15T08:55:26.638Z,99880.88
2022-09-15T08:57:53.907Z,99891.97
2022-09-15T09:00:20.525Z,99897.38
2022-09-15T09:03:11.803Z,99893.28
2022-09-15T09:05:50.309Z,99901.31
2022-09-15T09:08:32.096Z,99904.00
2022-09-15T09:11:16.530Z,99905.97
2022-09-15T09:13:47.945Z,99906.50
2022-09-15T09:16:25.200Z,99888.16
2022-09-15T09:19:14.881Z,99890.88
2022-09-15T09:21:47.131Z,99886.88
2022-09-15T09:24:26.667Z,99883.75
2022-09-15T09:26:55.760Z,99882.91
2022-09-15T09:29:33.003Z,99881.03
2022-09-15T09:32:01.329Z,99883.47
2022-09-15T09:34:44.200Z,99898.41
2022-09-15T09:37:14.115Z,99906.09
2022-09-15T09:39:41.097Z,99905.22
2022-09-15T09:42:14.494Z,99901.09
2022-09-15T09:44:41.631Z,99906.97
2022-09-15T09:47:08.282Z,99908.41
2022-09-15T09:49:39.408Z,99902.94
2022-09-15T09:52:06.004Z,99906.69
2022-09-15T09:54:35.476Z,99917.84
2022-09-15T09:57:14.267Z,99920.38
2022-09-15T09:59:42.182Z,99927.09
2022-09-15T10:02:11.508Z,99922.22
2022-09-15T10:04:45.718Z,99926.03
2022-09-15T10:07:14.362Z,99907.94
2022-09-15T10:09:50.412Z,99910.19
2022-09-15T10:12:21.430Z,99903.31
2022-09-15T10:14:53.169Z,99910.41
2022-09-15T10:17:48.162Z,99911.28
2022-09-15T10:20:35.428Z,99897.03
2022-09-15T10:23:23.090Z,99902.78
2022-09-15T10:25:59.099Z,99901.03
2022-09-15T10:28:27.551Z,99895.41
2022-09-15T10:31:03.988Z,99895.41
2022-09-15T10:33:34.925Z,99903.31
2022-09-15T10:36:31.472Z,99902.50
2022-09-15T10:39:32.129Z,99896.19
2022-09-15T10:42:46.068Z,99890.66
2022-09-15T10:45:33.734Z,99883.75
2022-09-15T10:48:07.120Z,99887.63
2022-09-15T10:50:50.563Z,99883.91
2022-09-15T10:53:20.267Z,99873.75
2022-09-15T10:56:06.751Z,99883.75
2022-09-15T10:58:52.027Z,99875.75
2022-09-15T11:01:54.122Z,99886.50
2022-09-15T11:04:28.262Z,99880.03
2022-09-15T11:07:29.330Z,99878.69
2022-09-15T11:10:04.823Z,99881.59
2022-09-15T11:12:56.229Z,99880.19
2022-09-15T11:15:47.288Z,99878.00
2022-09-15T11:18:40.677Z,99883.16
2022-09-15T11:21:37.517Z,99890.63
2022-09-15T11:24:06.740Z,99898.34
2022-09-15T11:26:42.406Z,99919.19
2022-09-15T11:29:51.423Z,99927.13
2022-09-15T11:32:25.734Z,99935.53
2022-09-15T11:35:01.295Z,99941.38
2022-09-15T11:37:39.134Z,99940.97
2022-09-15T11:40:15.051Z,99930.38
2022-09-15T11:42:44.932Z,99929.53
2022-09-15T11:45:25.732Z,99933.16
2022-09-15T11:47:59.936Z,99930.09
2022-09-15T11:50:32.817Z,99930.41
2022-09-15T11:53:08.243Z,99933.41
2022-09-15T11:55:37.672Z,99918.81
2022-09-15T11:58:19.682Z,99916.03
2022-09-15T12:00:56.596Z,99922.59
2022-09-15T12:03:32.508Z,99920.66
2022-09-15T12:06:05.382Z,99914.81
2022-09-15T12:08:53.450Z,99917.97
2022-09-15T12:11:24.015Z,99912.25
2022-09-15T12:13:52.142Z,99918.88
2022-09-15T12:16:20.533Z,99926.28
2022-09-15T12:19:07.552Z,99910.03
2022-09-15T12:22:02.070Z,99912.81
2022-09-15T12:24:53.062Z,99903.84
2022-09-15T12:27:21.157Z,99914.31
2022-09-15T12:29:52.650Z,99905.38
2022-09-15T12:32:24.814Z,99903.13
2022-09-15T12:35:02.298Z,99909.03
2022-09-15T12:37:44.069Z,99901.81
2022-09-15T12:40:37.524Z,99905.97
2022-09-15T12:43:19.684Z,99899.28
2022-09-15T12:46:00.909Z,99895.31
2022-09-15T12:48:30.571Z,99902.78
2022-09-15T12:51:05.060Z,99897.97
2022-09-15T12:53:40.849Z,99897.81
2022-09-15T12:56:21.347Z,99914.31
2022-09-15T12:58:50.107Z,99910.53
2022-09-15T13:01:22.908Z,99913.28
2022-09-15T13:03:49.604Z,99923.84
2022-09-15T13:06:22.243Z,99915.41
2022-09-15T13:08:51.777Z,99918.53
2022-09-15T13:11:34.731Z,99914.72
2022-09-15T13:14:04.314Z,99921.53
2022-09-15T13:16:52.414Z,99918.09
2022-09-15T13:19:46.702Z,99926.81
2022-09-15T13:22:20.014Z,99934.59
2022-09-15T13:25:10.769Z,99949.88
2022-09-15T13:28:04.024Z,99949.19
2022-09-15T13:30:40.923Z,99953.88
2022-09-15T13:33:16.966Z,99950.47
2022-09-15T13:35:52.711Z,99946.47
2022-09-15T13:38:37.961Z,99959.00
2022-09-15T13:41:19.339Z,99952.13
2022-09-15T13:44:00.017Z,99947.75
2022-09-15T13:46:43.598Z,99948.59
2022-09-15T13:49:28.974Z,99949.22
2022-09-15T13:52:15.874Z,99945.25
2022-09-15T13:55:26.377Z,99942.16
2022-09-15T14:01:00.555Z,99938.19
2022-09-15T14:03:36.798Z,99932.34
2022-09-15T14:06:14.347Z,99935.41
2022-09-15T14:08:43.842Z,99929.81
2022-09-15T14:11:15.747Z,99929.25
2022-09-15T14:13:49.031Z,99921.19
2022-09-15T14:16:27.811Z,99929.53
2022-09-15T14:18:57.735Z,99926.19
2022-09-15T14:21:30.129Z,99923.16
2022-09-15T14:24:00.409Z,99921.59
2022-09-15T14:26:29.502Z,99920.94
2022-09-15T14:29:01.449Z,99927.59
2022-09-15T14:31:31.688Z,99929.84
2022-09-15T14:33:58.397Z,99932.59
2022-09-15T14:36:28.857Z,99939.00
2022-09-15T14:39:11.642Z,99928.44
2022-09-15T14:41:40.120Z,99932.31
2022-09-15T14:47:22.172Z,99982.84
2022-09-15T14:49:49.011Z,99981.38
2022-09-15T14:52:28.811Z,99971.41
2022-09-15T14:55:01.746Z,99967.69
2022-09-15T14:57:31.891Z,99960.63
2022-09-15T15:00:03.898Z,99960.25
2022-09-15T15:02:41.198Z,99969.34
2022-09-15T15:05:14.994Z,99963.16
2022-09-15T15:07:42.900Z,99954.41
2022-09-15T15:10:32.203Z,99963.94
2022-09-15T15:13:07.053Z,99949.31
2022-09-15T15:15:34.447Z,99953.97
2022-09-15T15:18:04.742Z,99946.22
2022-09-15T15:20:31.516Z,99945.72
2022-09-15T15:23:11.091Z,99943.84
2022-09-15T15:25:37.878Z,99934.13
2022-09-15T15:28:06.396Z,99937.69
2022-09-15T15:30:36.512Z,99936.56
2022-09-15T15:33:15.085Z,99940.06
2022-09-15T15:35:44.240Z,99943.34
2022-09-15T15:38:20.343Z,99942.63
2022-09-15T15:40:46.927Z,99937.88
2022-09-15T15:43:25.235Z,99942.47
2022-09-15T15:45:58.147Z,99945.81
2022-09-15T15:48:26.609Z,99948.84
2022-09-15T15:50:55.187Z,99949.31
2022-09-15T15:53:23.338Z,99952.59
2022-09-15T15:55:50.276Z,99956.78
2022-09-15T15:58:17.340Z,99953.50
2022-09-15T16:00:47.349Z,99956.63
2022-09-15T16:03:15.912Z,99952.09
2022-09-15T16:05:46.697Z,99949.38
2022-09-15T16:08:38.126Z,99948.56
2022-09-15T16:11:05.198Z,99949.91
2022-09-15T16:13:31.789Z,99950.53
2022-09-15T16:16:00.984Z,99940.69
2022-09-15T16:18:28.754Z,99942.94
2022-09-15T16:20:55.480Z,99934.38
2022-09-15T16:23:23.073Z,99932.75
2022-09-15T16:25:52.873Z,99936.56
2022-09-15T16:28:20.092Z,99932.72
2022-09-15T16:30:47.329Z,99929.97
2022-09-15T16:33:18.460Z,99931.88
2022-09-15T16:36:03.607Z,99949.41
2022-09-15T16:38:30.264Z,99958.56
2022-09-15T16:40:56.873Z,99950.41
2022-09-15T16:43:23.647Z,99953.56
2022-09-15T16:45:51.344Z,99944.63
2022-09-15T16:48:18.478Z,99944.16
2022-09-15T16:51:01.225Z,99952.66
2022-09-15T16:53:33.253Z,99947.00
2022-09-15T16:55:59.840Z,99942.91
2022-09-15T16:58:26.606Z,99952.06
2022-09-15T17:00:53.722Z,99959.00
2022-09-15T17:03:23.841Z,99955.69
2022-09-15T17:05:52.323Z,99955.75
2022-09-15T17:08:21.415Z,99954.81
2022-09-15T17:10:48.853Z,99958.59
2022-09-15T17:13:19.544Z,99958.75
2022-09-15T17:15:47.286Z,99953.09
2022-09-15T17:18:15.554Z,99957.22
2022-09-15T17:20:43.878Z,99960.25
2022-09-15T17:23:59.963Z,99949.78
2022-09-15T17:26:31.338Z,99953.56
2022-09-15T17:28:58.604Z,99958.56
2022-09-15T17:31:25.538Z,99966.06
2022-09-15T17:33:53.162Z,99954.59
2022-09-15T17:36:20.011Z,99955.88
2022-09-15T17:38:48.798Z,99962.78
2022-09-15T17:41:20.496Z,99970.50
2022-09-15T17:43:47.540Z,99973.91
2022-09-15T17:46:14.354Z,99969.97
2022-09-15T17:48:41.079Z,99966.31
2022-09-15T17:51:14.264Z,99964.53
2022-09-15T17:53:41.001Z,99966.66
2022-09-15T17:56:07.797Z,99964.53
2022-09-15T17:58:34.438Z,99962.59
2022-09-15T18:01:01.286Z,99966.16
2022-09-15T18:03:34.087Z,99969.94
2022-09-15T18:06:05.130Z,99973.38
2022-09-15T18:08:36.215Z,99967.00
2022-09-15T18:11:05.156Z,99969.13
2022-09-15T18:13:32.195Z,99972.88
2022-09-15T18:16:07.224Z,99971.66
2022-09-15T18:18:34.279Z,99972.63
2022-09-15T18:21:01.544Z,99967.00
2022-09-15T18:23:31.087Z,99975.63
2022-09-15T18:25:58.109Z,99973.59
2022-09-15T18:28:24.806Z,99984.00
2022-09-15T18:30:52.176Z,99976.44
2022-09-15T18:33:24.227Z,99985.25
2022-09-15T18:35:53.787Z,99989.31
2022-09-15T18:38:21.752Z,99990.53
2022-09-15T18:40:55.445Z,99987.34
2022-09-15T18:43:23.470Z,99985.72
2022-09-15T18:45:50.428Z,99992.28
2022-09-15T18:48:17.142Z,99987.88
2022-09-15T18:50:44.947Z,99990.25
2022-09-15T18:53:12.585Z,99982.16
2022-09-15T18:55:42.738Z,99980.31
2022-09-15T18:58:10.921Z,99976.50
2022-09-15T19:00:37.868Z,99986.16
2022-09-15T19:03:06.156Z,99978.66
2022-09-15T19:05:34.213Z,99985.16
2022-09-15T19:08:02.365Z,99998.28
2022-09-15T19:10:29.406Z,100003.06
2022-09-15T19:12:56.169Z,99998.66
2022-09-15T19:15:24.095Z,100001.09
2022-09-15T19:17:51.244Z,100009.81
2022-09-15T19:20:18.415Z,100008.56
2022-09-15T19:22:46.050Z,100006.91
2022-09-15T19:25:14.003Z,100015.09
2022-09-15T19:27:41.370Z,100011.75
2022-09-15T19:30:10.136Z,100003.94
2022-09-15T19:32:38.424Z,100014.13
2022-09-15T19:35:06.763Z,100005.78
2022-09-15T19:37:37.271Z,100015.00
2022-09-15T19:40:08.350Z,100013.59
2022-09-15T19:42:36.340Z,100022.63
2022-09-15T19:45:03.073Z,100014.09
2022-09-15T19:47:30.011Z,100017.84
2022-09-15T19:49:56.829Z,100017.44
2022-09-15T19:52:23.694Z,100015.84
2022-09-15T19:54:50.348Z,100016.56
2022-09-15T19:57:17.034Z,100014.28
2022-09-15T19:59:44.786Z,100010.56
2022-09-15T20:02:12.081Z,100013.00
2022-09-15T20:04:39.636Z,100016.34
2022-09-15T20:07:06.357Z,100018.66
2022-09-15T20:09:33.453Z,100019.44
2022-09-15T20:12:03.383Z,100015.75
2022-09-15T20:14:31.428Z,100011.72
2022-09-15T20:17:01.128Z,100017.44
2022-09-15T20:19:29.308Z,100017.19
2022-09-15T20:21:56.258Z,100020.81
2022-09-15T20:24:23.955Z,100019.03
2022-09-15T20:26:51.681Z,100024.75
2022-09-15T20:29:18.951Z,100022.25
2022-09-15T20:31:46.213Z,100024.59
2022-09-15T20:34:13.372Z,100025.44
2022-09-15T20:36:40.660Z,100030.16
2022-09-15T20:39:10.672Z,100025.25
2022-09-15T20:41:37.816Z,100027.09
2022-09-15T20:44:06.111Z,100021.63
2022-09-15T20:46:33.596Z,100028.13
2022-09-15T20:49:00.420Z,100032.53
2022-09-15T20:51:31.644Z,100027.03
2022-09-15T20:54:00.124Z,100025.91
2022-09-15T20:56:29.492Z,100022.91
2022-09-15T20:58:58.596Z,100033.31
2022-09-15T21:01:34.278Z,100032.16
2022-09-15T21:04:01.502Z,100025.50
2022-09-15T21:06:29.172Z,100038.50
2022-09-15T21:08:56.819Z,100039.41
2022-09-15T21:11:26.363Z,100041.84
2022-09-15T21:13:54.172Z,100036.16
2022-09-15T21:16:24.503Z,100044.66
2022-09-15T21:18:52.055Z,100040.28
2022-09-15T21:21:21.757Z,100044.56
2022-09-15T21:23:56.904Z,100045.63
2022-09-15T21:26:28.966Z,100050.31
2022-09-15T21:28:56.442Z,100038.31
2022-09-15T21:31:27.068Z,100040.16
2022-09-15T21:33:54.625Z,100030.50
2022-09-15T21:36:29.811Z,100041.47
2022-09-15T21:38:58.273Z,100024.88
2022-09-15T21:41:28.172Z,100033.97
2022-09-15T21:43:55.590Z,100033.72
2022-09-15T21:46:25.200Z,100036.81
2022-09-15T21:48:52.709Z,100035.03
2022-09-15T21:51:24.936Z,100036.75
2022-09-15T21:53:53.803Z,100038.88
2022-09-15T21:56:21.782Z,100037.75
2022-09-15T21:58:48.472Z,100041.50
2022-09-15T22:01:18.932Z,100047.28
2022-09-15T22:03:54.154Z,100038.44
2022-09-15T22:06:23.362Z,100043.66
2022-09-15T22:08:50.054Z,100053.56
2022-09-15T22:11:16.736Z,100049.81
2022-09-15T22:13:44.749Z,100053.38
2022-09-15T22:16:17.658Z,100052.44
2022-09-15T22:18:45.061Z,100051.72
2022-09-15T22:21:19.195Z,100052.00
2022-09-15T22:23:47.662Z,100051.75
2022-09-15T22:26:23.164Z,100057.34
2022-09-15T22:28:49.957Z,100058.91
2022-09-15T22:31:18.874Z,100054.56
2022-09-15T22:33:45.905Z,100062.75
2022-09-15T22:36:14.446Z,100056.94
2022-09-15T22:38:41.068Z,100056.03
2022-09-15T22:41:12.009Z,100058.63
2022-09-15T22:43:40.043Z,100057.78
2022-09-15T22:46:07.708Z,100060.06
2022-09-15T22:48:37.484Z,100061.94
2022-09-15T22:51:07.153Z,100055.19
2022-09-15T22:53:34.224Z,100054.56
2022-09-15T22:56:11.469Z,100057.00
2022-09-15T22:58:43.026Z,100044.47
2022-09-15T23:01:13.563Z,100050.81
2022-09-15T23:03:40.580Z,100044.97
2022-09-15T23:06:08.054Z,100043.75
2022-09-15T23:08:35.915Z,100046.94
2022-09-15T23:11:03.631Z,100041.13
2022-09-15T23:13:30.420Z,100041.94
2022-09-15T23:15:57.132Z,100044.03
2022-09-15T23:18:23.735Z,100052.50
2022-09-15T23:20:57.837Z,100044.50
2022-09-15T23:23:24.957Z,100038.13
2022-09-15T23:25:51.655Z,100038.59
2022-09-15T23:28:18.422Z,100038.69
2022-09-15T23:30:45.035Z,100042.78
2022-09-15T23:33:11.635Z,100039.63
2022-09-15T23:35:38.383Z,100037.78
2022-09-15T23:38:05.086Z,100040.50
2022-09-15T23:40:33.010Z,100040.66
2022-09-15T23:42:59.692Z,100042.34
2022-09-15T23:45:26.254Z,100039.88
2022-09-15T23:47:53.088Z,100038.13
2022-09-15T23:50:19.756Z,100041.47
2022-09-15T23:52:46.379Z,100042.50
2022-09-15T23:55:14.227Z,100040.81
2022-09-15T23:57:40.819Z,100036.34
